Tiempo atmosférico en la estación meteorológica de Sa Pobla, Illes Balears (40 m.)



Fecha
DESCASC
Temp. máxima en grados centígrados (hora)
DESCASC
Temp. mínima en grados centígrados (hora)
DESCASC
Temp. media en grados centígrados
DESCASC
Racha de viento máxima en m/sg (hora)
DESCASC
Velocidad máxima media en intervalos de 10 minutos(hora)
DESCASC
Precipitaciones diarias en mm
DESCASC
Precipitaciones de 00:00 a 06:00 en mm
DESCASC
Precipitaciones de 06:00 a 12:00 en mm
DESCASC
Precipitaciones de 12:00 a 18:00 en mm
DESCASC
Precipitaciones de 18:00 a 24:00 en mm
DESCASC
22-08-2019 29.1 (13:20) 16.4 (06:10) 22.8 11.67 (15:50) 8.33 (15:50) 0 0 0 0 0
21-08-2019 28.6 (15:30) 20.9 (22:50) 24.8 11.11 (01:20) 7.22 (02:00) 0 0 0 0 0
20-08-2019 29.9 (11:50) 22.6 (07:20) 26.3 12.78 (16:50) 8.06 (16:40) 0 0 0 0 0
19-08-2019 35.1 (15:20) 19 (06:30) 27 9.17 (15:40) 5.56 (16:10) 0 0 0 0 0
18-08-2019 37 (16:30) 20.8 (00:00) 28.9 12.22 (15:40) 7.22 (15:40) 0 0 0 0 0
17-08-2019 35.9 (16:00) 20.1 (00:00) 28 10.56 (16:20) 5.83 (14:50) 0 0 0 0 0
16-08-2019 32.2 (16:20) 20.6 (00:00) 26.4 8.61 (14:30) 6.11 (14:30) 0 0 0 0 0
15-08-2019 32.9 (13:00) 18.6 (00:00) 25.8 8.06 (14:40) 4.72 (14:20) 0 0 0 0 0
14-08-2019 32.9 (14:30) 17 (00:00) 25 9.44 (13:50) 5.28 (13:20) 0 0 0 0 0
13-08-2019 28 (14:50) 20.6 (00:00) 24.3 12.5 (02:20) 7.22 (02:10) 0 0 0 0 0
12-08-2019 28.5 (12:00) 24.1 (00:00) 26.3 9.72 (05:40) 6.11 (06:00) 0 0 0 0 0
11-08-2019 36.9 (14:30) 22.1 (00:00) 29.5 8.61 (16:00) 4.72 (14:50) 0 0 0 0 0
10-08-2019 33 (14:00) 23.1 (00:00) 28.1 10 (12:10) 6.11 (12:10) 0 0 0 0 0
09-08-2019 38.1 (15:50) 22.6 (00:00) 30.3 9.72 (16:10) 6.11 (17:50) 0 0 0 0 0
08-08-2019 35.7 (13:20) 23.3 (00:00) 29.5 8.89 (14:50) 4.72 (14:10) 0 0 0 0 0
07-08-2019 34.9 (13:30) 22.1 (00:00) 28.5 8.61 (14:40) 4.72 (14:40) 0 0 0 0 0
06-08-2019 35.8 (13:10) 21.1 (00:00) 28.4 8.33 (16:00) 4.72 (16:00) 0 0 0 0 0
05-08-2019 36.6 (16:00) 19.5 (00:00) 28 8.89 (17:30) 5.28 (17:10) 0 0 0 0 0
04-08-2019 37 (15:40) 18.2 (00:00) 27.6 10.28 (14:30) 5.56 (18:30) 0 0 0 0 0
03-08-2019 33.2 (14:50) 18.6 (00:00) 25.9 8.61 (11:30) 4.44 (11:30) 0 0 0 0 0
02-08-2019 30.6 (13:30) 21.9 (00:00) 26.3 10 (12:30) 7.22 (10:50) 0 0 0 0 0
01-08-2019 32.4 (14:40) 22.3 (00:00) 27.4 10.56 (18:40) 6.11 (18:20) 0 0 0 0 0
31-07-2019 28.4 (14:40) 23 (00:00) 25.7 13.33 (11:50) 7.78 (11:10) 0 0 0 0 0
30-07-2019 31.8 (12:00) 20.1 (00:00) 25.9 11.39 (17:10) 7.22 (17:00) 0 0 0 0 0
29-07-2019 33.6 (14:50) 16.7 (00:00) 25.1 9.17 (11:50) 4.72 (16:10) 0 0 0 0 0
28-07-2019 31.4 (12:40) 21.3 (00:00) 26.3 9.44 (14:20) 5.83 (17:40) 0 0 0 0 0
27-07-2019 33.5 (13:20) 22.4 (00:00) 27.9 13.33 (16:50) 6.67 (16:30) 0 0 0 0 0
26-07-2019 35.9 (15:00) 20.4 (00:00) 28.2 10.83 (15:50) 6.39 (15:30) 0 0 0 0 0

Gráficas

Temp. máximas Temp. mínimas Temp. medias Precipitaciones Rachas de viento máximas Velocidades máximas media en intervalos de 10 minutos

Datos horarios

Fecha y hora oficial Temperatura (ºC) Velocidad del viento (km/h) Dirección del viento Racha (km/h) Dirección de racha Precipitación (mm) Presión (hPa) Tendencia (hPa) Humedad (%)
2019-08-24 23:00:00 23.5 3 Sudoeste 5 Oeste 0 1014.6 0.8 79
2019-08-24 22:00:00 24.5 0 Calma 8 Nordeste 0 1014.3 0.6 76
2019-08-24 21:00:00 25.3 6 Nordeste 19 Nordeste 0 1013.8 0.1 74
2019-08-24 20:00:00 26.5 13 Nordeste 24 Nordeste 0 1013.8 -0.1 67
2019-08-24 19:00:00 28.2 14 Nordeste 27 Nordeste 0 1013.7 -0.4 59
2019-08-24 18:00:00 29.1 17 Nordeste 26 Nordeste 0 1013.7 -0.6 57
2019-08-24 17:00:00 30.3 13 Nordeste 34 Nordeste 0 1013.9 -0.7 52
2019-08-24 16:00:00 30.5 18 Nordeste 29 Nordeste 0 1014.1 -0.8 51
2019-08-24 15:00:00 30.7 15 Nordeste 29 Nordeste 0 1014.3 -0.9 46
2019-08-24 14:00:00 30.4 19 Nordeste 31 Norte 0 1014.6 -0.6 40
2019-08-24 13:00:00 29.9 13 Nordeste 24 Nordeste 0 1014.9 -0.1 51
2019-08-24 12:00:00 29.4 12 Nordeste 25 Nordeste 0 1015.2 0.4 54
2019-08-24 11:00:00 28.5 12 Nordeste 21 Nordeste 0 1015.2 0.7 62
2019-08-24 10:00:00 26.9 10 Nordeste 20 Nordeste 0 1015 0.4 69
2019-08-24 09:00:00 23.9 3 Nordeste 4 Norte 0 1014.8 0.4 80
2019-08-24 08:00:00 20.5 2 Sur 7 Sudoeste 0 1014.5 0 90
2019-08-24 07:00:00 19.9 4 Sudoeste 9 Sur 0 1014.6 -0.2 90
2019-08-24 06:00:00 20 3 Sudeste 7 Sur 0 1014.4 -0.5 86
2019-08-24 05:00:00 21.2 3 Sur 8 Sudoeste 0 1014.5 -0.5 84
2019-08-24 04:00:00 21.5 5 Sur 9 Sudoeste 0 1014.8 -0.2 87
2019-08-24 03:00:00 21.2 5 Sudoeste 10 Sudoeste 0 1014.9 0.1 86
2019-08-24 02:00:00 21.1 2 Sur 6 Oeste 0 1015 0.2 82
2019-08-24 01:00:00 22.4 3 Oeste 8 Noroeste 0 1015 0.3 81
2019-08-24 00:00:00 22.8 5 Noroeste 7 Noroeste 0 1014.8 0.4 80
2019-08-23 23:00:00 23.5 0 Calma 9 Norte 0 1014.8 0.6 76
2019-08-23 22:00:00 24.2 3 Nordeste 10 Nordeste 0 1014.7 0.5 75
2019-08-23 21:00:00 25 6 Nordeste 15 Este 0 1014.4 0.2 73
2019-08-23 20:00:00 26.4 9 Este 19 Nordeste 0 1014.2 -0.3 67
2019-08-23 19:00:00 28.4 11 Nordeste 24 Este 0 1014.2 -0.5 56
2019-08-23 18:00:00 29.1 14 Nordeste 26 Nordeste 0 1014.2 -1 54
2019-08-23 17:00:00 29.6 15 Nordeste 29 Nordeste 0 1014.5 -1.1 55
2019-08-23 16:00:00 30 14 Nordeste 27 Nordeste 0 1014.7 -1 53
2019-08-23 15:00:00 30.3 13 Nordeste 31 Norte 0 1015.2 -0.7 52
2019-08-23 14:00:00 29.5 17 Este 30 Nordeste 0 1015.6 -0.2 54
2019-08-23 13:00:00 29.7 12 Nordeste 28 Nordeste 0 1015.7 -0.1 50
2019-08-23 12:00:00 29.2 15 Este 30 Este 0 1015.9 0.4 51
2019-08-23 11:00:00 28.2 11 Nordeste 24 Norte 0 1015.8 0.6 58
2019-08-23 10:00:00 27.3 15 Norte 25 Norte 0 1015.8 0.8 56
2019-08-23 09:00:00 25.8 16 Norte 26 Norte 0 1015.5 0.4 61
2019-08-23 08:00:00 20.6 4 Norte 16 Este 0 1015.2 -0.2 76
2019-08-23 07:00:00 21.4 9 Norte 18 Nordeste 0 1015 -0.4 75
2019-08-23 06:00:00 20.6 8 Nordeste 13 Norte 0 1015.1 -0.3 75
2019-08-23 05:00:00 19.6 5 Nordeste 11 Sur 0 1015.4 -0.4 77
2019-08-23 04:00:00 18.8 3 Sudeste 12 Nordeste 0 1015.4 -0.7 70
2019-08-23 03:00:00 20 9 Norte 13 Norte 0 1015.4 -0.4 70
2019-08-23 02:00:00 19.4 3 Sudoeste 10 Sudoeste 0 1015.8 -0.2 66
2019-08-23 01:00:00 21.3 6 Sudoeste 22 Nordeste 0 1016.1 0.2 55
2019-08-23 00:00:00 22.2 8 Nordeste 15 Nordeste 0 1015.8 0.1 55
2019-08-22 23:00:00 22.7 8 Nordeste 16 Nordeste 0 1016 0.8 51
2019-08-22 22:00:00 22.8 6 Nordeste 13 Nordeste 0 1015.9 0.6 59
2019-08-22 21:00:00 24.2 8 Nordeste 21 Norte 0 1015.7 0.3 52
2019-08-22 20:00:00 26.2 12 Norte 28 Norte 0 1015.2 -0.5 45
2019-08-22 19:00:00 27.3 17 Norte 33 Norte 0 1015.3 -0.4 38
2019-08-22 18:00:00 28.2 23 Nordeste 35 Nordeste 0 1015.4 -0.6 37
2019-08-22 17:00:00 28.1 24 Norte 42 Nordeste 0 1015.7 -0.3 38
2019-08-22 16:00:00 28.7 26 Nordeste 42 Norte 0 1015.7 -0.5 39
2019-08-22 15:00:00 28.6 23 Norte 42 Norte 0 1016 -0.1 39
2019-08-22 14:00:00 28.7 25 Norte 41 Norte 0 1016 0.2 40
2019-08-22 13:00:00 28.9 23 Norte 38 Norte 0 1016.2 0.6 39
2019-08-22 12:00:00 27.8 23 Norte 40 Norte 0 1016.1 0.6 46
2019-08-22 11:00:00 27.8 22 Norte 37 Norte 0 1015.8 1.1 50
2019-08-22 10:00:00 26.8 19 Norte 31 Norte 0 1015.6 0.9 51
2019-08-22 09:00:00 24.8 15 Norte 23 Norte 0 1015.5 1 57
2019-08-22 08:00:00 18.1 4 Sudoeste 6 Sudoeste 0 1014.7 0 79
2019-08-22 07:00:00 16.5 5 Sur 7 Sur 0 1014.7 0 81
2019-08-22 06:00:00 16.5 4 Sur 6 Sur 0 1014.5 0.1 79
2019-08-22 05:00:00 17.3 3 Sudoeste 9 Sudoeste 0 1014.7 0 78
2019-08-22 04:00:00 17.8 6 Sudoeste 10 Sudoeste 0 1014.7 -0.5 77
2019-08-22 03:00:00 17.7 3 Sudeste 9 Nordeste 0 1014.4 -0.8 77
2019-08-22 02:00:00 18.3 3 Sur 7 Oeste 0 1014.7 -0.9 74
2019-08-22 01:00:00 19.9 2 Sudoeste 8 Oeste 0 1015.2 -0.2 70
2019-08-22 00:00:00 21.5 9 Nordeste 19 Nordeste 0 1015.2 0.5 66
2019-08-21 23:00:00 21.6 9 Norte 13 Nordeste 0 1015.6 1.1 65
2019-08-21 22:00:00 22 3 Nordeste 10 Nordeste 0 1015.4 1.1 62
2019-08-21 21:00:00 23.4 8 Nordeste 22 Norte 0 1014.7 0.4 58
2019-08-21 20:00:00 24.7 17 Norte 26 Nordeste 0 1014.5 0.2 52
2019-08-21 19:00:00 25.9 14 Nordeste 28 Nordeste 0 1014.3 -0.3 51
2019-08-21 18:00:00 26.5 15 Nordeste 34 Nordeste 0 1014.3 -1 52
2019-08-21 17:00:00 28.2 17 Nordeste 34 Nordeste 0 1014.3 -1.4 47
2019-08-21 16:00:00 28.2 18 Nordeste 33 Nordeste 0 1014.6 -1.5 46
2019-08-21 15:00:00 28.4 17 Nordeste 32 Nordeste 0 1015.3 -1.1 45
2019-08-21 14:00:00 28.1 18 Nordeste 36 Norte 0 1015.7 -0.8 46
2019-08-21 13:00:00 27.9 17 Nordeste 36 Nordeste 0 1016.1 -0.6 46
2019-08-21 12:00:00 26.9 18 Nordeste 33 Nordeste 0 1016.4 -0.2 47
2019-08-21 11:00:00 26.3 18 Nordeste 35 Norte 0 1016.5 -0.1 48
2019-08-21 10:00:00 25.3 21 Nordeste 34 Nordeste 0 1016.7 0.3 51
2019-08-21 09:00:00 24.3 21 Norte 31 Norte 0 1016.6 0.5 54
2019-08-21 08:00:00 22.5 14 Nordeste 23 Nordeste 0 1016.6 0.3 64
2019-08-21 07:00:00 22.2 13 Norte 26 Nordeste 0 1016.4 0.1 64
2019-08-21 06:00:00 21.9 12 Norte 21 Nordeste 0 1016.1 -0.4 68
2019-08-21 05:00:00 22.1 15 Nordeste 28 Nordeste 0 1016.3 -0.3 68
2019-08-21 04:00:00 22.4 19 Nordeste 31 Nordeste 0 1016.3 -0.5 68
2019-08-21 03:00:00 22.5 19 Nordeste 38 Norte 0 1016.5 -0.5 69
2019-08-21 02:00:00 22.8 26 Nordeste 40 Norte 0 1016.6 -0.2 68
2019-08-21 01:00:00 23 16 Norte 33 Norte 0 1016.8 0.6 65
2019-08-21 00:00:00 23.1 19 Norte 42 Nordeste 0 1017 1.2 64
2019-08-20 23:00:00 23.6 27 Norte 44 Nordeste 0 1016.8 1.1 68
2019-08-20 22:00:00 23.7 19 Nordeste 29 Nordeste 0 1016.2 1.1 69
2019-08-20 21:00:00 23.7 13 Nordeste 28 Nordeste 0 1015.8 0.8 69
2019-08-20 20:00:00 24.3 18 Nordeste 36 Norte 0 1015.7 1.1 68
2019-08-20 19:00:00 24.2 23 Norte 42 Nordeste 0 1015.1 0 68
2019-08-20 18:00:00 24.4 26 Nordeste 43 Nordeste 0 1015 0.7 69
2019-08-20 17:00:00 25.8 28 Nordeste 46 Nordeste 0 1014.6 0.7 67
2019-08-20 16:00:00 24.8 27 Nordeste 40 Nordeste 0 1015.1 1.4 75
2019-08-20 15:00:00 26.4 24 Norte 39 Norte 0 1014.3 1 68
2019-08-20 14:00:00 27.8 26 Nordeste 41 Nordeste 0 1013.9 1.1 66
2019-08-20 13:00:00 28.6 24 Nordeste 40 Nordeste 0 1013.7 1.2 66
2019-08-20 12:00:00 29.1 17 Nordeste 32 Nordeste 0 1013.3 1.1 60
2019-08-20 11:00:00 28.9 14 Nordeste 26 Nordeste 0 1012.8 1 62
2019-08-20 10:00:00 27.2 14 Nordeste 24 Nordeste 0 1012.5 1 72
2019-08-20 09:00:00 26.2 7 Nordeste 14 Nordeste 0 1012.2 0.8 82
2019-08-20 08:00:00 23.6 5 Noroeste 9 Noroeste 0 1011.8 0 90
2019-08-20 07:00:00 22.8 5 Noroeste 7 Noroeste 0 1011.5 -0.2 91
2019-08-20 06:00:00 23.3 4 Noroeste 6 Noroeste 0 1011.4 -0.5 87
2019-08-20 05:00:00 24 4 Noroeste 12 Noroeste 0 1011.8 -0.4 84
2019-08-20 04:00:00 23.7 6 Noroeste 10 Noroeste 0 1011.7 -0.6 84
2019-08-20 03:00:00 24.4 4 Noroeste 6 Noroeste 0 1011.9 -0.6 83
2019-08-20 02:00:00 24.9 3 Oeste 6 Oeste 0 1012.2 -0.1 82
2019-08-20 01:00:00 24.9 3 Sudoeste 7 Sudoeste 0 1012.3 0.4 80
2019-08-20 00:00:00 25.5 4 Sudeste 12 Sudeste 0 1012.5 1.2 80
2019-08-19 23:00:00 25.8 8 Sudeste 17 Sudeste 0 1012.3 1.3 78
2019-08-19 22:00:00 26.4 14 Sudeste 19 Sudeste 0 1011.9 1.2 75
2019-08-19 21:00:00 27.7 12 Sudeste 21 Sudeste 0 1011.3 0.5 66
2019-08-19 20:00:00 29.9 15 Sudeste 23 Sudeste 0 1011 0.2 55
2019-08-19 19:00:00 31.6 16 Sudeste 30 Sudeste 0 1010.7 -0.1 49
2019-08-19 18:00:00 33.2 20 Este 32 Este 0 1010.8 -0.2 43
2019-08-19 17:00:00 34.2 14 Sudeste 33 Este 0 1010.8 -0.2 33
2019-08-19 16:00:00 34.7 15 Sudeste 33 Este 0 1010.8 -0.2 36
2019-08-19 15:00:00 35 15 Sudeste 27 Este 0 1011 -0.1 31
2019-08-19 14:00:00 34.6 11 Sudeste 25 Este 0 1011 0.1 37
2019-08-19 13:00:00 33.9 14 Sudeste 26 Sudeste 0 1011 0.4 40
2019-08-19 12:00:00 33 9 Sudeste 23 Sudeste 0 1011.1 0.5 40
2019-08-19 11:00:00 31.1 6 Este 17 Sur 0 1010.9 0.5 53
2019-08-19 10:00:00 28.7 3 Sur 14 Sur 0 1010.6 0.7 66
2019-08-19 09:00:00 25.3 4 Sudoeste 10 Sur 0 1010.6 1.1 66
2019-08-19 08:00:00 21.1 6 Sur 10 Sudoeste 0 1010.4 0.7 64
2019-08-19 07:00:00 19.5 6 Sudoeste 10 Sudoeste 0 1009.9 0.1 67
2019-08-19 06:00:00 19.6 4 Sudoeste 8 Sur 0 1009.5 -0.3 69
2019-08-19 05:00:00 20.2 3 Sudoeste 9 Norte 0 1009.7 -0.1 69
2019-08-19 04:00:00 21.2 7 Noroeste 10 Noroeste 0 1009.8 -0.2 66
2019-08-19 03:00:00 22.3 3 Sudoeste 9 Sur 0 1009.8 -0.1 68
2019-08-19 02:00:00 23.9 5 Sur 13 Sudoeste 0 1009.8 0.4 62
2019-08-19 01:00:00 24.8 6 Sudoeste 13 Sur 0 1010 1.3 65
2019-08-19 00:00:00 25.1 7 Sur 13 Sur 0 1009.9 1.8 72
2019-08-18 23:00:00 26.3 5 Sur 9 Sudeste 0 1009.4 1.6 67
2019-08-18 22:00:00 27.6 7 Sudeste 15 Sur 0 1008.7 1.2 63
2019-08-18 21:00:00 29.3 9 Sur 23 Sudeste 0 1008.1 0.5 53
2019-08-18 20:00:00 31.7 12 Sudeste 30 Sudeste 0 1007.8 0.3 42
2019-08-18 19:00:00 33.7 17 Sudeste 33 Sudeste 0 1007.5 -0.5 34
2019-08-18 18:00:00 35.2 19 Sudeste 33 Sudeste 0 1007.6 -0.8 32
2019-08-18 17:00:00 36.2 25 Sudeste 36 Sudeste 0 1007.5 -1.4 28
2019-08-18 16:00:00 36.4 24 Sudeste 44 Este 0 1008 -1.3 28
2019-08-18 15:00:00 36.5 19 Sudeste 33 Sudeste 0 1008.4 -1.1 30
2019-08-18 14:00:00 36.4 15 Sudeste 29 Sur 0 1008.9 -0.6 29
2019-08-18 13:00:00 35.4 10 Sudeste 21 Sudeste 0 1009.3 -0.1 33
2019-08-18 12:00:00 33.9 8 Sur 17 Sudeste 0 1009.5 0.1 37
2019-08-18 11:00:00 31.3 10 Sudeste 19 Sudeste 0 1009.5 0 50
2019-08-18 10:00:00 28.6 7 Sudeste 12 Sudeste 0 1009.4 -0.3 65
2019-08-18 09:00:00 25.6 4 Sur 7 Sur 0 1009.4 -0.5 70
2019-08-18 08:00:00 21.9 3 Sudoeste 8 Sur 0 1009.5 -0.5 78
2019-08-18 07:00:00 21 4 Sudoeste 8 Sudoeste 0 1009.7 -0.8 86
2019-08-18 06:00:00 22 4 Sudoeste 9 Sudoeste 0 1009.9 -1 90
2019-08-18 05:00:00 23 4 Sur 10 Sudoeste 0 1010 -1.1 90
2019-08-18 04:00:00 23.6 5 Sur 14 Sudoeste 0 1010.5 -0.6 89
2019-08-18 03:00:00 23.8 6 Sudoeste 12 Sudoeste 0 1010.9 -0.2 89
2019-08-18 02:00:00 24.4 5 Sudoeste 11 Sudoeste 0 1011.1 0 83
2019-08-18 01:00:00 24.7 6 Sudoeste 12 Sudoeste 0 1011.1 0.1 81
2019-08-18 00:00:00 25.4 5 Sudoeste 13 Sur 0 1011.1 0.7 80
2019-08-17 23:00:00 25.9 7 Sur 20 Sudeste 0 1011.1 0.9 77
2019-08-17 22:00:00 26.6 10 Sudeste 21 Sur 0 1011 0.9 73
2019-08-17 21:00:00 28 14 Sudeste 26 Sudeste 0 1010.4 0 64
2019-08-17 20:00:00 30.9 15 Sur 32 Sur 0 1010.2 -0.5 43
2019-08-17 19:00:00 33.3 15 Sur 28 Sudeste 0 1010.1 -0.9 33
2019-08-17 18:00:00 34.5 16 Sur 31 Sudeste 0 1010.4 -1.1 31
2019-08-17 17:00:00 34.8 18 Sudeste 38 Sudeste 0 1010.7 -1.2 30
2019-08-17 16:00:00 35.7 16 Sur 36 Sudeste 0 1011 -1.5 30
2019-08-17 15:00:00 35.1 18 Sudeste 33 Sudeste 0 1011.5 -1.5 30
2019-08-17 14:00:00 35.7 10 Sudeste 23 Sudeste 0 1011.9 -1.4 30
2019-08-17 13:00:00 34.4 8 Sudeste 17 Este 0 1012.5 -0.7 31
2019-08-17 12:00:00 32.8 7 Sur 16 Sudeste 0 1013 -0.3 33
2019-08-17 11:00:00 30.3 6 Sur 14 Sur 0 1013.3 0.2 44
2019-08-17 10:00:00 27.8 7 Sudeste 14 Sudeste 0 1013.2 0.3 65
2019-08-17 09:00:00 25 4 Sudoeste 8 Sudoeste 0 1013.3 0.7 71
2019-08-17 08:00:00 21.2 5 Sur 8 Sudoeste 0 1013.1 0.1 87
2019-08-17 07:00:00 20.2 3 Sudoeste 7 Sudoeste 0 1012.9 -0.3 91
2019-08-17 06:00:00 20.8 4 Sudoeste 7 Sur 0 1012.6 -0.7 91
2019-08-17 05:00:00 21.1 5 Sur 6 Sur 0 1013 -0.3 89
2019-08-17 04:00:00 21.6 2 Noroeste 8 Sudeste 0 1013.2 -0.2 84
2019-08-17 03:00:00 22.3 6 Sur 9 Sur 0 1013.3 -0.1 83
2019-08-17 02:00:00 23.1 3 Sur 9 Sur 0 1013.3 -0.2 79
2019-08-17 01:00:00 23.6 5 Sur 12 Sur 0 1013.4 0.2 76
2019-08-17 00:00:00 24.3 4 Sur 10 Sur 0 1013.4 0.8 69
2019-08-16 23:00:00 25.1 5 Sur 14 Sudoeste 0 1013.5 1.2 62
2019-08-16 22:00:00 26.6 7 Sudoeste 15 Sudoeste 0 1013.2 1 61
2019-08-16 21:00:00 28 6 Sudoeste 19 Nordeste 0 1012.6 0.1 52
2019-08-16 20:00:00 29.2 11 Nordeste 18 Nordeste 0 1012.3 -0.6 53
2019-08-16 19:00:00 30.7 10 Nordeste 21 Nordeste 0 1012.2 -1 49
2019-08-16 18:00:00 31.5 11 Nordeste 24 Nordeste 0 1012.5 -1.2 47
2019-08-16 17:00:00 31.6 13 Nordeste 27 Nordeste 0 1012.9 -1.4 47
2019-08-16 16:00:00 31.6 17 Nordeste 28 Nordeste 0 1013.2 -1.7 48
2019-08-16 15:00:00 31.3 21 Nordeste 31 Nordeste 0 1013.7 -1.7 50
2019-08-16 14:00:00 31.6 13 Nordeste 26 Norte 0 1014.3 -1.4 48
2019-08-16 13:00:00 30.9 12 Este 21 Este 0 1014.9 -0.8 49
2019-08-16 12:00:00 30.1 10 Este 21 Este 0 1015.4 -0.2 49
2019-08-16 11:00:00 28.5 5 Sudeste 13 Noroeste 0 1015.7 0.4 54
2019-08-16 10:00:00 27.4 4 Este 10 Este 0 1015.7 0.9 59
2019-08-16 09:00:00 24.5 2 Sudeste 4 Sudeste 0 1015.6 0.8 71
2019-08-16 08:00:00 21.1 0 Calma 6 Sur 0 1015.3 0.4 79
2019-08-16 07:00:00 20.9 4 Sur 7 Sur 0 1014.8 -0.3 78
2019-08-16 06:00:00 21.5 3 Sur 8 Sudoeste 0 1014.8 -0.5 77
2019-08-16 05:00:00 21.1 2 Sur 5 Sudoeste 0 1014.9 -0.7 76
2019-08-16 04:00:00 22.5 0 Calma 6 Oeste 0 1015.1 -0.8 73
2019-08-16 03:00:00 22.4 3 Sudoeste 6 Sudoeste 0 1015.3 -0.3 72
2019-08-16 02:00:00 22.9 5 Oeste 8 Oeste 0 1015.6 0.2 72
2019-08-16 01:00:00 23.2 3 Noroeste 7 Sudeste 0 1015.9 1.1 71
2019-08-16 00:00:00 23.8 5 Sudeste 10 Sudeste 0 1015.6 1.5 68
2019-08-15 23:00:00 25.3 4 Sur 10 Sur 0 1015.4 1.5 61
2019-08-15 22:00:00 26.6 6 Sur 12 Sur 0 1014.8 1.3 57
2019-08-15 21:00:00 28.2 6 Sudoeste 16 Sudoeste 0 1014.1 0.5 52
2019-08-15 20:00:00 30.4 2 Sudoeste 15 Sudoeste 0 1013.9 0.6 43
2019-08-15 19:00:00 31.4 8 Sudoeste 25 Oeste 0 1013.5 -0.5 43
2019-08-15 18:00:00 32.4 10 Sudoeste 28 Sur 0 1013.6 -0.8 42
2019-08-15 17:00:00 31.5 13 Sur 28 Nordeste 0 1013.3 -1.3 43
2019-08-15 16:00:00 32.7 12 Nordeste 25 Nordeste 0 1014 -0.8 38
2019-08-15 15:00:00 32 15 Nordeste 29 Nordeste 0 1014.4 -0.8 42
2019-08-15 14:00:00 32 13 Nordeste 28 Nordeste 0 1014.6 -0.8 41
2019-08-15 13:00:00 32.5 8 Nordeste 23 Norte 0 1014.8 -0.7 40
2019-08-15 12:00:00 31.5 5 Este 14 Este 0 1015.2 -0.5 38
2019-08-15 11:00:00 29.2 4 Este 11 Sudeste 0 1015.4 0.1 52
2019-08-15 10:00:00 27.3 3 Sudeste 7 Nordeste 0 1015.5 0.7 63
2019-08-15 09:00:00 23.6 3 Sudeste 9 Sur 0 1015.7 1.2 72
2019-08-15 08:00:00 20.1 4 Sur 9 Sur 0 1015.3 0.8 89
2019-08-15 07:00:00 18.6 4 Sudoeste 9 Sur 0 1014.8 0.1 91
2019-08-15 06:00:00 18.8 6 Sur 8 Sur 0 1014.5 -0.4 89
2019-08-15 05:00:00 19.6 3 Sudoeste 10 Sudoeste 0 1014.5 -0.6 88
2019-08-15 04:00:00 19.9 4 Sudoeste 8 Sur 0 1014.7 -0.5 84
2019-08-15 03:00:00 20.4 2 Sudoeste 8 Oeste 0 1014.9 0 81
2019-08-15 02:00:00 20.7 4 Oeste 6 Oeste 0 1015.1 0.1 80
2019-08-15 01:00:00 21.6 4 Oeste 6 Sur 0 1015.2 0.5 78
2019-08-15 00:00:00 22.5 0 Calma 5 Sudeste 0 1014.9 0.6 75
2019-08-14 23:00:00 23.9 0 Calma 12 Sur 0 1015 1.4 70
2019-08-14 22:00:00 25.2 5 Sur 18 Sur 0 1014.7 1.4 66
2019-08-14 21:00:00 26.2 11 Sur 22 Sur 0 1014.3 1 63
2019-08-14 20:00:00 27.6 14 Sur 26 Sur 0 1013.6 -0.1 58
2019-08-14 19:00:00 29.6 11 Sudoeste 24 Este 0 1013.3 -0.5 48
2019-08-14 18:00:00 29.4 14 Este 26 Nordeste 0 1013.3 -0.9 51
2019-08-14 17:00:00 28.7 12 Este 28 Nordeste 0 1013.7 -0.5 52
2019-08-14 16:00:00 29.3 13 Nordeste 28 Nordeste 0 1013.8 -0.8 50
2019-08-14 15:00:00 32.4 9 Este 31 Sudeste 0 1014.2 -0.7 40
2019-08-14 14:00:00 32 13 Sudoeste 34 Sur 0 1014.2 -0.9 38
2019-08-14 13:00:00 31.5 14 Sur 31 Sur 0 1014.6 -0.8 41
2019-08-14 12:00:00 30 9 Sudoeste 21 Sur 0 1014.9 -0.5 41
2019-08-14 11:00:00 28.7 11 Sur 22 Oeste 0 1015.1 -0.4 50
2019-08-14 10:00:00 26.4 10 Sudoeste 22 Sudoeste 0 1015.4 0.1 60
2019-08-14 09:00:00 23.2 6 Sur 11 Sur 0 1015.4 0.2 69
2019-08-14 08:00:00 18.9 3 Sur 10 Sudoeste 0 1015.5 0.1 80
2019-08-14 07:00:00 17 5 Sur 12 Sudoeste 0 1015.3 -0.3 82
2019-08-14 06:00:00 17.3 7 Sudoeste 13 Sudoeste 0 1015.2 -0.3 81
2019-08-14 05:00:00 17.8 6 Sudoeste 9 Sudoeste 0 1015.4 -0.3 80
2019-08-14 04:00:00 18.5 4 Norte 12 Sudoeste 0 1015.6 0 79
2019-08-14 03:00:00 18.1 0 Calma 8 Oeste 0 1015.5 0.3 77
2019-08-14 02:00:00 19 4 Sudoeste 6 Sudoeste 0 1015.7 0.8 75
2019-08-14 01:00:00 19.9 4 Norte 5 Norte 0 1015.6 0.9 75
2019-08-14 00:00:00 20.6 2 Noroeste 5 Sudoeste 0 1015.2 1.1 71
2019-08-13 23:00:00 21.6 3 Sudoeste 5 Sur 0 1014.9 1 68
2019-08-13 22:00:00 22.8 2 Este 5 Nordeste 0 1014.7 0.8 65
2019-08-13 21:00:00 24 3 Este 12 Este 0 1014.1 0.2 61
2019-08-13 20:00:00 25.1 8 Nordeste 19 Nordeste 0 1013.9 0 56
2019-08-13 19:00:00 26.1 10 Este 23 Nordeste 0 1013.9 -0.1 53
2019-08-13 18:00:00 26.8 12 Nordeste 28 Nordeste 0 1013.9 -0.4 50
2019-08-13 17:00:00 27.2 16 Nordeste 35 Este 0 1013.9 -1 51
2019-08-13 16:00:00 27.4 13 Nordeste 29 Este 0 1014 -1.5 48
2019-08-13 15:00:00 27.7 17 Nordeste 33 Nordeste 0 1014.3 -1.3 47
2019-08-13 14:00:00 27.2 15 Nordeste 30 Nordeste 0 1014.9 -0.6 49
2019-08-13 13:00:00 26.1 16 Nordeste 33 Norte 0 1015.5 0.2 51
2019-08-13 12:00:00 25.4 20 Norte 35 Norte 0 1015.6 0.9 52
2019-08-13 11:00:00 24.8 23 Norte 36 Nordeste 0 1015.5 0.8 52
2019-08-13 10:00:00 25 26 Norte 35 Norte 0 1015.3 1.2 54
2019-08-13 09:00:00 23.8 22 Nordeste 38 Nordeste 0 1014.7 0.4 54
2019-08-13 08:00:00 22.9 21 Nordeste 36 Nordeste 0 1014.7 0.2 58
2019-08-13 07:00:00 22.6 21 Norte 37 Nordeste 0 1014.1 -0.5 60
2019-08-13 06:00:00 22.7 19 Nordeste 35 Nordeste 0 1014.3 -0.2 62
2019-08-13 05:00:00 22.7 13 Norte 36 Nordeste 0 1014.5 -0.2 60
2019-08-13 04:00:00 23.1 16 Norte 37 Norte 0 1014.6 0.2 57
2019-08-13 03:00:00 23.6 21 Norte 45 Norte 0 1014.5 0.6 55
2019-08-13 02:00:00 23.7 21 Nordeste 36 Norte 0 1014.7 0.9 61
2019-08-13 01:00:00 24.2 20 Norte 33 Nordeste 0 1014.4 1.4 62
2019-08-13 00:00:00 24.4 17 Norte 30 Nordeste 0 1013.9 1.8 61
2019-08-12 23:00:00 24.2 15 Norte 27 Nordeste 0 1013.8 2.1 61
2019-08-12 22:00:00 24.3 18 Norte 29 Nordeste 0 1013 1.8 62
2019-08-12 21:00:00 24.4 16 Nordeste 28 Nordeste 0 1012.1 0.9 64
2019-08-12 20:00:00 25.1 19 Nordeste 31 Norte 0 1011.7 0.5 63
2019-08-12 19:00:00 26.1 21 Norte 34 Norte 0 1011.2 -0.1 63
2019-08-12 18:00:00 26.2 21 Nordeste 32 Nordeste 0 1011.2 -0.4 63
2019-08-12 17:00:00 26.3 20 Nordeste 31 Nordeste 0 1011.2 -0.6 65
2019-08-12 16:00:00 25.9 21 Nordeste 31 Nordeste 0 1011.3 0.1 67
2019-08-12 15:00:00 25.9 20 Nordeste 31 Nordeste 0 1011.6 0.4 68
2019-08-12 14:00:00 25.5 17 Nordeste 29 Nordeste 0 1011.8 1.1 72
2019-08-12 13:00:00 26.6 19 Nordeste 32 Nordeste 0 1011.2 1 70
2019-08-12 12:00:00 28.3 18 Nordeste 32 Nordeste 0 1011.2 1.5 65
2019-08-12 11:00:00 27.1 19 Nordeste 33 Nordeste 0 1010.7 1.9 71
2019-08-12 10:00:00 25.8 13 Nordeste 30 Nordeste 0 1010.2 1.5 74
2019-08-12 09:00:00 25.4 20 Nordeste 34 Nordeste 0 1009.7 1.7 75
2019-08-12 08:00:00 25.3 20 Nordeste 31 Nordeste 0 1008.8 1.2 77
2019-08-12 07:00:00 25.5 14 Norte 35 Nordeste 0 1008.7 0.4 80
2019-08-12 06:00:00 25.9 22 Norte 35 Norte 0 1008 -0.9 83
2019-08-12 05:00:00 26.3 8 Norte 13 Norte 0 1007.6 -2.5 85
2019-08-12 04:00:00 26.4 3 Oeste 12 Nordeste 0 1008.3 -1.5 80
2019-08-12 03:00:00 26.5 2 Sudoeste 10 Este 0 1008.9 -0.2 80
2019-08-12 02:00:00 26.2 4 Sudoeste 9 Sudoeste 0 1010.1 0.8 81
2019-08-12 01:00:00 26.7 3 Norte 10 Nordeste 0 1009.8 1.2 79
2019-08-12 00:00:00 27.2 7 Norte 13 Norte 0 1009.1 0.7 78
2019-08-11 23:00:00 27.2 7 Nordeste 15 Nordeste 0 1009.3 1.5 78
2019-08-11 22:00:00 27.5 8 Nordeste 19 Nordeste 0 1008.6 1.1 77
2019-08-11 21:00:00 28.2 10 Este 19 Este 0 1008.4 0.8 72
2019-08-11 20:00:00 30 11 Este 22 Este 0 1007.8 0.1 63
2019-08-11 19:00:00 31.5 13 Nordeste 24 Nordeste 0 1007.5 -0.6 58
2019-08-11 18:00:00 32.7 12 Nordeste 23 Este 0 1007.6 -0.6 54
2019-08-11 17:00:00 33.1 12 Nordeste 28 Nordeste 0 1007.7 -0.7 53
2019-08-11 16:00:00 33.9 15 Nordeste 31 Nordeste 0 1008.1 -0.8 51
2019-08-11 15:00:00 34.6 15 Nordeste 28 Este 0 1008.2 -1.3 48
2019-08-11 14:00:00 36.5 11 Sur 21 Sudoeste 0 1008.4 -1.2 40
2019-08-11 13:00:00 34.7 9 Sudoeste 22 Sur 0 1008.9 -0.7 45
2019-08-11 12:00:00 31.7 7 Sudeste 23 Sudeste 0 1009.5 -0.4 57
2019-08-11 11:00:00 29.5 7 Sur 15 Sur 0 1009.6 -0.3 67
2019-08-11 10:00:00 28.9 6 Sur 13 Sur 0 1009.6 -0.2 75
2019-08-11 09:00:00 26.5 3 Oeste 6 Sudoeste 0 1009.9 0 87
2019-08-11 08:00:00 23.4 4 Sudoeste 6 Sudoeste 0 1009.9 -0.3 94
2019-08-11 07:00:00 22.2 3 Oeste 5 Sudoeste 0 1009.8 -0.5 94
2019-08-11 06:00:00 22.6 2 Sur 6 Sudoeste 0 1009.9 -0.9 94
2019-08-11 05:00:00 23.1 3 Sudoeste 5 Sudoeste 0 1010.2 -0.8 93
2019-08-11 04:00:00 23.9 4 Noroeste 7 Noroeste 0 1010.3 -0.9 94
2019-08-11 03:00:00 23.9 2 Oeste 5 Oeste 0 1010.8 -0.7 92
2019-08-11 02:00:00 24.5 0 Calma 7 Oeste 0 1011 -0.6 92
2019-08-11 01:00:00 25.3 5 Oeste 7 Oeste 0 1011.2 -0.2 92
2019-08-11 00:00:00 26.1 4 Sur 7 Sur 0 1011.5 0.3 90
2019-08-10 23:00:00 26.6 3 Sudeste 6 Nordeste 0 1011.6 0.5 88
2019-08-10 22:00:00 26.8 4 Nordeste 13 Nordeste 0 1011.4 0.3 88
2019-08-10 21:00:00 27.4 9 Nordeste 18 Nordeste 0 1011.2 0 83
2019-08-10 20:00:00 28.6 10 Nordeste 21 Nordeste 0 1011.1 -0.1 75
2019-08-10 19:00:00 30 12 Nordeste 23 Nordeste 0 1011.1 -0.5 68
2019-08-10 18:00:00 31 15 Nordeste 26 Nordeste 0 1011.2 -0.9 64
2019-08-10 17:00:00 31.9 15 Nordeste 28 Nordeste 0 1011.2 -1 60
2019-08-10 16:00:00 32.1 14 Nordeste 31 Nordeste 0 1011.6 -0.9 59
2019-08-10 15:00:00 31.9 15 Nordeste 30 Nordeste 0 1012.1 -0.3 58
2019-08-10 14:00:00 32.2 18 Nordeste 32 Nordeste 0 1012.2 0.3 57
2019-08-10 13:00:00 31.9 18 Nordeste 36 Norte 0 1012.5 1 54
2019-08-10 12:00:00 31.8 20 Nordeste 34 Norte 0 1012.4 1.2 59
2019-08-10 11:00:00 32 20 Nordeste 28 Nordeste 0 1011.9 0.9 58
2019-08-10 10:00:00 30.2 7 Nordeste 17 Nordeste 0 1011.5 1 65
2019-08-10 09:00:00 27 3 Sudeste 6 Sudeste 0 1011.2 1.4 87
2019-08-10 08:00:00 23.9 2 Noroeste 6 Noroeste 0 1011 1.7 95
2019-08-10 07:00:00 23.1 4 Noroeste 8 Nordeste 0 1010.5 1.3 95
2019-08-10 06:00:00 24.4 3 Norte 16 Sudoeste 0 1009.8 0.8 94
2019-08-10 05:00:00 24.8 6 Sudoeste 25 Sur 0 1009.3 0.1 94
2019-08-10 04:00:00 24.8 14 Sur 26 Sur 0 1009.2 -0.2 94
2019-08-10 03:00:00 25.1 14 Sur 24 Sudoeste 0 1009 -0.5 94
2019-08-10 02:00:00 25.4 12 Sur 23 Sur 0 1009.2 -0.1 91
2019-08-10 01:00:00 25.6 7 Sur 18 Sur 0 1009.4 0.5 85
2019-08-10 00:00:00 26.3 10 Sur 22 Sur 0 1009.5 1.2 79
2019-08-09 23:00:00 27.2 10 Sur 22 Sur 0 1009.3 1.5 70
2019-08-09 22:00:00 28.1 10 Sur 20 Sur 0 1008.9 1.1 67
2019-08-09 21:00:00 29.9 4 Sur 18 Sudoeste 0 1008.3 0.4 53
2019-08-09 20:00:00 32.6 10 Sur 27 Sudoeste 0 1007.8 -0.4 39
2019-08-09 19:00:00 34.3 15 Sur 34 Sur 0 1007.8 -0.5 34
2019-08-09 18:00:00 35.2 20 Sudoeste 35 Sudoeste 0 1007.9 -0.9 26
2019-08-09 17:00:00 36.6 17 Sudoeste 35 Sudoeste 0 1008.2 -0.8 21
2019-08-09 16:00:00 37.7 17 Sudoeste 32 Sudoeste 0 1008.3 -0.8 19
2019-08-09 15:00:00 37.2 15 Sudoeste 32 Sur 0 1008.8 -0.5 24
2019-08-09 14:00:00 37.2 13 Sudoeste 32 Sudoeste 0 1009 -0.3 27
2019-08-09 13:00:00 36.7 15 Sudoeste 34 Sudoeste 0 1009.1 0.1 26
2019-08-09 12:00:00 35.6 13 Sudoeste 27 Sur 0 1009.3 0 24
2019-08-09 11:00:00 34.3 14 Sur 28 Sur 0 1009.3 -0.1 26
2019-08-09 10:00:00 30.2 10 Sur 20 Sur 0 1009 -0.3 58
2019-08-09 09:00:00 26 10 Sudoeste 19 Sur 0 1009.3 0.2 90
2019-08-09 08:00:00 23.8 4 Sur 6 Sur 0 1009.4 0.1 94
2019-08-09 07:00:00 23.5 3 Sur 10 Sur 0 1009.3 0 94
2019-08-09 06:00:00 24 4 Sur 15 Sudoeste 0 1009.1 0.1 93
2019-08-09 05:00:00 24.4 9 Sudoeste 14 Sudoeste 0 1009.3 0.2 93
2019-08-09 04:00:00 24.5 5 Sudoeste 18 Sur 0 1009.3 0.1 89
2019-08-09 03:00:00 24.4 6 Sudoeste 13 Sudoeste 0 1009 0 82
2019-08-09 02:00:00 23.9 6 Sudeste 13 Sudoeste 0 1009.1 0.3 77
2019-08-09 01:00:00 25 6 Sur 14 Sudoeste 0 1009.2 0.7 75
2019-08-09 00:00:00 26.1 4 Sudoeste 11 Sur 0 1009 1 65
2019-08-08 23:00:00 26.9 3 Oeste 12 Sur 0 1008.8 1.1 65
2019-08-08 22:00:00 27.9 4 Sur 10 Nordeste 0 1008.5 0.9 69
2019-08-08 21:00:00 28.9 6 Nordeste 15 Este 0 1008 0.2 64
2019-08-08 20:00:00 31.1 8 Nordeste 20 Nordeste 0 1007.7 0 56
2019-08-08 19:00:00 32.4 11 Nordeste 21 Este 0 1007.6 -0.3 52
2019-08-08 18:00:00 34 13 Nordeste 22 Este 0 1007.8 -0.5 48
2019-08-08 17:00:00 35 12 Este 22 Este 0 1007.7 -0.5 46
2019-08-08 16:00:00 34.9 14 Nordeste 27 Nordeste 0 1007.9 -0.8 47
2019-08-08 15:00:00 34.6 16 Nordeste 32 Nordeste 0 1008.3 -0.7 48
2019-08-08 14:00:00 35.4 16 Nordeste 29 Nordeste 0 1008.2 -0.7 46
2019-08-08 13:00:00 35 6 Sudeste 17 Sur 0 1008.7 -0.4 38
2019-08-08 12:00:00 33.4 7 Sudeste 15 Sur 0 1009 0 46
2019-08-08 11:00:00 31.1 4 Oeste 11 Sur 0 1008.9 0.5 57
2019-08-08 10:00:00 29.1 3 Noroeste 12 Sur 0 1009.1 1 69
2019-08-08 09:00:00 27.1 5 Sur 8 Sur 0 1009 1.1 82
2019-08-08 08:00:00 24.6 0 Calma 6 Noroeste 0 1008.4 1.2 91
2019-08-08 07:00:00 23.5 4 Noroeste 6 Norte 0 1008.1 0.2 92
2019-08-08 06:00:00 24 0 Calma 4 Sur 0 1007.9 -0.2 90
2019-08-08 05:00:00 24.5 5 Nordeste 10 Norte 0 1007.2 -0.9 90
2019-08-08 04:00:00 24.7 3 Norte 9 Sur 0 1007.9 -0.5 90
2019-08-08 03:00:00 24.7 5 Sudoeste 12 Sur 0 1008.1 -0.4 90
2019-08-08 02:00:00 24.5 4 Sudoeste 9 Sudoeste 0 1008.1 -0.1 87
2019-08-08 01:00:00 24.9 4 Sudoeste 6 Oeste 0 1008.4 0.6 84
2019-08-08 00:00:00 25.4 3 Sudoeste 5 Nordeste 0 1008.5 1.4 83
2019-08-07 23:00:00 25.9 4 Nordeste 12 Nordeste 0 1008.2 1.4 81
2019-08-07 22:00:00 26.4 5 Nordeste 17 Nordeste 0 1007.8 1.2 79
2019-08-07 21:00:00 27.1 10 Nordeste 18 Nordeste 0 1007.1 0.4 78
2019-08-07 20:00:00 28.4 10 Nordeste 22 Nordeste 0 1006.8 0.3 71
2019-08-07 19:00:00 29.9 11 Nordeste 21 Nordeste 0 1006.6 -0.2 66
2019-08-07 18:00:00 30.7 11 Nordeste 23 Este 0 1006.7 -0.3 62
2019-08-07 17:00:00 31.7 14 Nordeste 26 Nordeste 0 1006.5 -0.3 58
2019-08-07 16:00:00 32.4 14 Nordeste 29 Nordeste 0 1006.8 -0.1 54
2019-08-07 15:00:00 33.3 14 Este 31 Nordeste 0 1007 0.1 50
2019-08-07 14:00:00 34 14 Nordeste 30 Nordeste 0 1006.8 0.1 48
2019-08-07 13:00:00 34.4 6 Este 18 Nordeste 0 1006.9 0.3 46
2019-08-07 12:00:00 32.2 8 Sudoeste 22 Sur 0 1006.9 0.7 49
2019-08-07 11:00:00 30.4 9 Sudoeste 21 Sudoeste 0 1006.7 0.9 54
2019-08-07 10:00:00 27 9 Sur 18 Sur 0 1006.6 1.1 75
2019-08-07 09:00:00 25.8 5 Sur 9 Sur 0 1006.2 0.4 87
2019-08-07 08:00:00 23.4 2 Oeste 6 Noroeste 0 1005.8 -0.4 93
2019-08-07 07:00:00 22.2 3 Este 6 Noroeste 0 1005.5 -0.7 92
2019-08-07 06:00:00 22.9 4 Oeste 7 Oeste 0 1005.8 -0.8 93
2019-08-07 05:00:00 22.7 2 Este 5 Norte 0 1006.2 -0.9 91
2019-08-07 04:00:00 23.1 3 Oeste 6 Sur 0 1006.2 -1.3 91
2019-08-07 03:00:00 24 4 Sudoeste 9 Sur 0 1006.6 -1 89
2019-08-07 02:00:00 23.8 4 Sur 7 Sur 0 1007.1 0 87
2019-08-07 01:00:00 24.3 4 Sur 6 Sudoeste 0 1007.5 0.9 84
2019-08-07 00:00:00 25.2 3 Sudoeste 5 Sudoeste 0 1007.6 1.1 81
2019-08-06 23:00:00 25.9 0 Calma 5 Nordeste 0 1007.1 0.5 79
2019-08-06 22:00:00 26.5 4 Nordeste 11 Este 0 1006.6 0.4 78
2019-08-06 21:00:00 27.4 7 Este 18 Este 0 1006.5 0 74
2019-08-06 20:00:00 28.7 10 Este 23 Nordeste 0 1006.6 -0.5 67
2019-08-06 19:00:00 31.2 12 Este 24 Este 0 1006.2 -1.3 57
2019-08-06 18:00:00 32.3 12 Nordeste 26 Este 0 1006.5 -1.2 53
2019-08-06 17:00:00 33.5 11 Nordeste 25 Nordeste 0 1007.1 -0.8 50
2019-08-06 16:00:00 33.2 17 Nordeste 30 Nordeste 0 1007.5 -0.6 50
2019-08-06 15:00:00 34.7 13 Nordeste 25 Este 0 1007.7 -0.9 45
2019-08-06 14:00:00 35.3 10 Sudoeste 25 Sudoeste 0 1007.9 -1 36
2019-08-06 13:00:00 35.4 8 Sur 22 Sur 0 1008.1 -1 34
2019-08-06 12:00:00 33.2 8 Sur 19 Sudoeste 0 1008.6 -0.8 41
2019-08-06 11:00:00 30.4 8 Sur 16 Sur 0 1008.9 -0.1 55
2019-08-06 10:00:00 28.4 3 Sudoeste 11 Sur 0 1009.1 0.1 68
2019-08-06 09:00:00 26 4 Sudoeste 9 Sur 0 1009.4 0.6 76
2019-08-06 08:00:00 22.6 3 Sudeste 9 Noroeste 0 1009 0 77
2019-08-06 07:00:00 21.3 4 Sudoeste 8 Sudoeste 0 1009 -0.5 80
2019-08-06 06:00:00 21.3 3 Sudoeste 6 Norte 0 1008.8 -0.9 80
2019-08-06 05:00:00 21.5 6 Norte 7 Norte 0 1009 -1.1 81
2019-08-06 04:00:00 21.8 3 Este 5 Sudeste 0 1009.5 -0.4 77
2019-08-06 03:00:00 22.5 3 Oeste 8 Oeste 0 1009.7 0 73
2019-08-06 02:00:00 23.5 4 Sudoeste 8 Sudoeste 0 1010.1 0.8 73
2019-08-06 01:00:00 24.7 5 Sudoeste 8 Sudoeste 0 1009.9 0.8 72
2019-08-06 00:00:00 25.2 4 Sudoeste 10 Sur 0 1009.7 1.1 60
2019-08-05 23:00:00 26.5 6 Sur 14 Sur 0 1009.3 0.8 63
2019-08-05 22:00:00 27.8 8 Sur 17 Sudeste 0 1009.1 0.6 50
2019-08-05 21:00:00 30.1 10 Sudeste 24 Sudeste 0 1008.6 -0.3 31
2019-08-05 20:00:00 32.2 15 Sudeste 27 Sudeste 0 1008.5 -0.7 30
2019-08-05 19:00:00 33.9 17 Sudeste 28 Sudeste 0 1008.5 -1 29
2019-08-05 18:00:00 35.1 17 Sudeste 32 Sudeste 0 1008.9 -0.9 28
2019-08-05 17:00:00 36 17 Sudeste 30 Sudeste 0 1009.2 -1.1 24
2019-08-05 16:00:00 36.4 13 Este 29 Norte 0 1009.5 -1.3 28
2019-08-05 15:00:00 35.9 13 Nordeste 28 Nordeste 0 1009.8 -1.4 31
2019-08-05 14:00:00 36.1 13 Sudeste 23 Sudeste 0 1010.3 -0.8 21
2019-08-05 13:00:00 35.1 6 Sudeste 21 Sur 0 1010.8 -0.5 24
2019-08-05 12:00:00 33.8 11 Sudeste 22 Sur 0 1011.2 -0.1 31
2019-08-05 11:00:00 30.8 5 Norte 10 Norte 0 1011.1 0 44
2019-08-05 10:00:00 28.9 5 Sur 10 Sur 0 1011.3 0.3 50
2019-08-05 09:00:00 26.4 4 Sudoeste 8 Sudoeste 0 1011.3 0.5 61
2019-08-05 08:00:00 21.5 3 Sudoeste 6 Sudoeste 0 1011.1 0.1 68
2019-08-05 07:00:00 19.7 0 Calma 9 Sudoeste 0 1011 -0.1 75
2019-08-05 06:00:00 19.8 5 Sudoeste 7 Sur 0 1010.8 -0.5 72
2019-08-05 05:00:00 20.6 2 Sudoeste 6 Sudoeste 0 1011 -0.4 71
2019-08-05 04:00:00 21.4 4 Sudoeste 8 Sudoeste 0 1011.1 -0.4 70
2019-08-05 03:00:00 21.7 3 Sur 4 Sur 0 1011.3 -0.1 69
2019-08-05 02:00:00 22.8 2 Sudoeste 5 Oeste 0 1011.4 0.4 68
2019-08-05 01:00:00 24.1 4 Sudoeste 11 Sur 0 1011.5 1 64
2019-08-05 00:00:00 24.9 8 Sur 12 Sur 0 1011.4 1.6 62
2019-08-04 23:00:00 26.2 4 Sur 7 Sur 0 1011 1.7 59
2019-08-04 22:00:00 27.3 5 Sudeste 13 Sudeste 0 1010.5 1.4 54
2019-08-04 21:00:00 29.3 8 Sudeste 27 Sudeste 0 1009.8 0.5 43
2019-08-04 20:00:00 31.9 15 Sudeste 30 Sudeste 0 1009.3 -0.2 31
2019-08-04 19:00:00 33.9 18 Sudeste 34 Sudeste 0 1009.1 -0.9 28
2019-08-04 18:00:00 36 11 Sudeste 26 Sur 0 1009.3 -0.8 24
2019-08-04 17:00:00 36.5 13 Sudeste 28 Sur 0 1009.5 -1 21
2019-08-04 16:00:00 36.5 17 Sudeste 33 Sudeste 0 1010 -0.7 21
2019-08-04 15:00:00 36.6 16 Sudeste 37 Este 0 1010.1 -0.9 21
2019-08-04 14:00:00 35.2 13 Este 27 Nordeste 0 1010.5 -0.9 28
2019-08-04 13:00:00 35.9 6 Este 18 Sudeste 0 1010.7 -0.5 29
2019-08-04 12:00:00 33.9 4 Nordeste 12 Este 0 1011 -0.1 31
2019-08-04 11:00:00 31.7 5 Este 11 Este 0 1011.4 0.9 36
2019-08-04 10:00:00 28.9 6 Nordeste 11 Nordeste 0 1011.2 1.3 52
2019-08-04 09:00:00 25.1 3 Sur 7 Sudoeste 0 1011.1 1.1 59
2019-08-04 08:00:00 20.6 7 Sudoeste 12 Sur 0 1010.5 0.5 71
2019-08-04 07:00:00 18.2 4 Sur 7 Sur 0 1009.9 -0.7 78
2019-08-04 06:00:00 18.9 5 Oeste 7 Oeste 0 1010 -0.8 76
2019-08-04 05:00:00 19.7 5 Sur 10 Sudoeste 0 1010 -0.7 73
2019-08-04 04:00:00 20.5 6 Sudoeste 9 Sudoeste 0 1010.6 -0.1 71
2019-08-04 03:00:00 21 4 Sur 6 Sur 0 1010.8 0.1 69
2019-08-04 02:00:00 22.1 0 Calma 12 Sudoeste 0 1010.7 0.2 65
2019-08-04 01:00:00 23.1 7 Sudoeste 10 Sudoeste 0 1010.7 0.8 61
2019-08-04 00:00:00 24.2 4 Sudoeste 9 Sudoeste 0 1010.7 1.4 59
2019-08-03 23:00:00 25.4 4 Sudoeste 11 Sur 0 1010.5 1 56
2019-08-03 22:00:00 26.3 6 Sudeste 12 Sur 0 1009.9 0.6 51
2019-08-03 21:00:00 27.1 6 Nordeste 14 Nordeste 0 1009.3 -0.7 65
2019-08-03 20:00:00 29 8 Nordeste 21 Nordeste 0 1009.5 -0.9 57
2019-08-03 19:00:00 29.8 13 Nordeste 25 Nordeste 0 1009.3 -1.6 56
2019-08-03 18:00:00 31 14 Nordeste 27 Nordeste 0 1010 -1.3 47
2019-08-03 17:00:00 31.8 15 Nordeste 26 Nordeste 0 1010.4 -1.2 42
2019-08-03 16:00:00 32.5 13 Nordeste 24 Nordeste 0 1010.9 -1.2 37
2019-08-03 15:00:00 32.6 13 Nordeste 27 Nordeste 0 1011.3 -0.8 33
2019-08-03 14:00:00 32.6 15 Nordeste 26 Nordeste 0 1011.6 -0.4 33
2019-08-03 13:00:00 32 14 Nordeste 26 Nordeste 0 1012.1 0.3 36
2019-08-03 12:00:00 31.3 14 Nordeste 31 Nordeste 0 1012.1 0.4 35
2019-08-03 11:00:00 30.7 11 Nordeste 20 Este 0 1012 0.6 37
2019-08-03 10:00:00 29.1 5 Nordeste 10 Norte 0 1011.8 0.5 44
2019-08-03 09:00:00 24.6 5 Sur 8 Sur 0 1011.7 0.7 56
2019-08-03 08:00:00 20.4 5 Sur 11 Sudoeste 0 1011.4 0.4 69
2019-08-03 07:00:00 18.7 7 Sudoeste 12 Sudoeste 0 1011.3 0.1 74
2019-08-03 06:00:00 18.7 7 Sudoeste 11 Sudoeste 0 1011 -0.5 78
2019-08-03 05:00:00 18.9 5 Sur 9 Sudoeste 0 1011 -0.7 77
2019-08-03 04:00:00 19.3 4 Sudoeste 10 Sudoeste 0 1011.2 -0.6 70
2019-08-03 03:00:00 19.7 5 Sudoeste 8 Sudoeste 0 1011.5 0 75
2019-08-03 02:00:00 20.2 3 Sudoeste 5 Sudoeste 0 1011.7 0.3 75
2019-08-03 01:00:00 21.1 4 Sudoeste 8 Oeste 0 1011.8 0.8 71
2019-08-03 00:00:00 21.9 4 Sudoeste 6 Sudoeste 0 1011.5 1 71
2019-08-02 23:00:00 23.1 0 Calma 3 Nordeste 0 1011.4 1.3 67
2019-08-02 22:00:00 24.4 3 Nordeste 12 Nordeste 0 1011 0.9 66
2019-08-02 21:00:00 25.8 7 Nordeste 19 Nordeste 0 1010.5 0 61
2019-08-02 20:00:00 27.8 10 Nordeste 21 Nordeste 0 1010.1 -0.7 52
2019-08-02 19:00:00 28.8 13 Nordeste 27 Nordeste 0 1010.1 -1.2 47
2019-08-02 18:00:00 29.6 14 Nordeste 27 Este 0 1010.5 -1 44
2019-08-02 17:00:00 29.8 15 Nordeste 29 Nordeste 0 1010.8 -0.4 47
2019-08-02 16:00:00 30.5 15 Nordeste 29 Nordeste 0 1011.3 0.2 45
2019-08-02 15:00:00 30.2 16 Nordeste 33 Nordeste 0 1011.5 0.8 47
2019-08-02 14:00:00 30.2 17 Nordeste 33 Nordeste 0 1011.2 1 46
2019-08-02 13:00:00 30 19 Norte 36 Nordeste 0 1011.1 1.3 43
2019-08-02 12:00:00 29.8 22 Nordeste 36 Nordeste 0 1010.7 1.2 44
2019-08-02 11:00:00 29.1 23 Nordeste 36 Norte 0 1010.2 1.5 47
2019-08-02 10:00:00 28 21 Norte 34 Norte 0 1009.8 1.3 49
2019-08-02 09:00:00 26.7 19 Norte 29 Norte 0 1009.5 1 50
2019-08-02 08:00:00 24.9 15 Norte 24 Norte 0 1008.7 0 61
2019-08-02 07:00:00 24.1 15 Norte 30 Norte 0 1008.5 -0.3 79
2019-08-02 06:00:00 24.1 20 Norte 29 Nordeste 0 1008.5 0 90
2019-08-02 05:00:00 24.1 8 Nordeste 19 Norte 0 1008.7 -0.5 91
2019-08-02 04:00:00 24.3 3 Nordeste 12 Norte 0 1008.8 -0.1 91
2019-08-02 03:00:00 24.1 6 Noroeste 10 Noroeste 0 1008.5 0.5 89
2019-08-02 02:00:00 24.4 4 Noroeste 7 Noroeste 0 1009.2 2 88
2019-08-02 01:00:00 24.6 0 Calma 7 Nordeste 0 1008.9 1.4 87
2019-08-02 00:00:00 25.1 5 Este 19 Norte 0 1008 0.8 84
2019-08-01 23:00:00 25.4 8 Norte 15 Norte 0 1007.2 1.8 81
2019-08-01 22:00:00 25.9 5 Norte 13 Nordeste 0 1007.5 0.4 78
2019-08-01 21:00:00 26.5 10 Nordeste 32 Nordeste 0 1007.2 0 75
2019-08-01 20:00:00 26.7 20 Nordeste 35 Nordeste 0 1005.4 -1.7 73
2019-08-01 19:00:00 27.9 14 Nordeste 38 Nordeste 0 1007.1 -0.3 64
2019-08-01 18:00:00 28.2 14 Nordeste 26 Nordeste 0 1007.2 -0.7 68
2019-08-01 17:00:00 30.1 13 Nordeste 27 Nordeste 0 1007.1 -0.9 59
2019-08-01 16:00:00 31.8 13 Nordeste 27 Norte 0 1007.4 -0.9 52
2019-08-01 15:00:00 32.1 15 Nordeste 30 Nordeste 0 1007.9 -1 51
2019-08-01 14:00:00 31.9 15 Nordeste 29 Nordeste 0 1008 -0.1 50
2019-08-01 13:00:00 31.9 12 Nordeste 24 Nordeste 0 1008.3 -0.3 47
2019-08-01 12:00:00 30.2 8 Norte 23 Norte 0 1008.9 0.1 49
2019-08-01 11:00:00 29 15 Nordeste 23 Norte 0 1008.1 -0.5 54
2019-08-01 10:00:00 28.1 10 Nordeste 23 Nordeste 0 1008.6 -0.4 59
2019-08-01 09:00:00 26.3 14 Nordeste 22 Nordeste 0 1008.8 -0.3 68
2019-08-01 08:00:00 23.8 9 Norte 17 Norte 0 1008.6 -0.8 77
2019-08-01 07:00:00 22.3 6 Noroeste 12 Noroeste 0 1009 -0.9 80
2019-08-01 06:00:00 22.5 6 Noroeste 12 Noroeste 0 1009.1 -2.5 78
2019-08-01 05:00:00 22.7 6 Norte 21 Nordeste 0 1009.4 -2.1 75
2019-08-01 04:00:00 23.1 12 Norte 18 Nordeste 0 1009.9 -2.1 74
2019-08-01 03:00:00 22.8 6 Noroeste 19 Norte 0 1011.6 -0.1 74
2019-08-01 02:00:00 23.2 8 Norte 15 Norte 0 1011.5 -0.2 71
2019-08-01 01:00:00 23.1 6 Norte 13 Noroeste 0 1012 0.2 70
2019-08-01 00:00:00 23.5 8 Norte 21 Norte 0 1011.7 0.1 70
2019-07-31 23:00:00 23.5 13 Nordeste 23 Nordeste 0 1011.7 0.5 70
2019-07-31 22:00:00 24.1 13 Nordeste 23 Nordeste 0 1011.8 0.1 66
2019-07-31 21:00:00 24.5 13 Nordeste 29 Nordeste 0 1011.6 -1.1 64
2019-07-31 20:00:00 25.7 14 Nordeste 31 Nordeste 0 1011.2 -1.5 58
2019-07-31 19:00:00 26.8 18 Nordeste 28 Nordeste 0 1011.7 -1.1 53
2019-07-31 18:00:00 27 15 Nordeste 33 Nordeste 0 1012.7 0 53
2019-07-31 17:00:00 27.5 18 Nordeste 33 Nordeste 0 1012.7 -0.9 50
2019-07-31 16:00:00 27.4 21 Nordeste 42 Nordeste 0 1012.8 -1.5 48
2019-07-31 15:00:00 28 24 Nordeste 41 Nordeste 0 1012.7 -1.1 48
2019-07-31 14:00:00 27.1 27 Nordeste 40 Nordeste 0 1013.6 -0.5 51
2019-07-31 13:00:00 25.8 22 Nordeste 44 Nordeste 0 1014.3 0 57
2019-07-31 12:00:00 27 24 Nordeste 48 Nordeste 0 1013.8 -0.4 52
2019-07-31 11:00:00 27.4 21 Nordeste 42 Nordeste 0 1014.1 0.5 53
2019-07-31 10:00:00 26.4 22 Nordeste 40 Nordeste 0 1014.3 1 54
2019-07-31 09:00:00 25.6 19 Nordeste 33 Nordeste 0 1014.2 1 60
2019-07-31 08:00:00 24.3 15 Nordeste 28 Norte 0 1013.6 0.8 66
2019-07-31 07:00:00 23.1 14 Norte 24 Nordeste 0 1013.3 0.7 71
2019-07-31 06:00:00 23.3 10 Norte 20 Norte 0 1013.2 0.5 71
2019-07-31 05:00:00 23.4 12 Norte 19 Nordeste 0 1012.8 0 70
2019-07-31 04:00:00 23.5 11 Nordeste 19 Nordeste 0 1012.6 -0.2 70
2019-07-31 03:00:00 23.6 10 Norte 17 Norte 0 1012.7 0 71
2019-07-31 02:00:00 23.8 10 Norte 17 Nordeste 0 1012.8 0.4 72
2019-07-31 01:00:00 24.1 10 Nordeste 21 Nordeste 0 1012.8 1 70
2019-07-31 00:00:00 24.8 11 Norte 16 Norte 0 1012.7 1.5 74
2019-07-30 23:00:00 25.4 5 Norte 9 Norte 0 1012.4 1.5 70
2019-07-30 22:00:00 26.4 6 Este 21 Nordeste 0 1011.8 1.3 68
2019-07-30 21:00:00 26.4 14 Norte 27 Nordeste 0 1011.2 0.6 69
2019-07-30 20:00:00 26.8 18 Norte 32 Nordeste 0 1010.9 0.3 66
2019-07-30 19:00:00 27.6 24 Nordeste 36 Norte 0 1010.5 -0.2 63
2019-07-30 18:00:00 28.2 23 Nordeste 41 Nordeste 0 1010.6 -0.2 60
2019-07-30 17:00:00 29.4 26 Nordeste 38 Norte 0 1010.6 -0.2 56
2019-07-30 16:00:00 30 20 Nordeste 36 Nordeste 0 1010.7 -0.3 52
2019-07-30 15:00:00 31 18 Nordeste 31 Nordeste 0 1010.8 -0.1 46
2019-07-30 14:00:00 30.9 18 Nordeste 32 Nordeste 0 1010.8 -0.2 51
2019-07-30 13:00:00 31.6 14 Nordeste 26 Este 0 1011 0.1 47
2019-07-30 12:00:00 31.7 12 Nordeste 23 Nordeste 0 1010.9 0.2 37
2019-07-30 11:00:00 30.6 11 Nordeste 22 Nordeste 0 1011 0.9 42
2019-07-30 10:00:00 28.5 6 Nordeste 13 Nordeste 0 1010.9 1.3 60
2019-07-30 09:00:00 26.1 2 Este 5 Oeste 0 1010.7 1.7 66
2019-07-30 08:00:00 21.7 3 Sudoeste 9 Sudoeste 0 1010.1 1.2 80
2019-07-30 07:00:00 20.1 6 Sur 10 Sur 0 1009.6 0.9 84
2019-07-30 06:00:00 20.4 2 Oeste 7 Sudoeste 0 1009 0.2 82
2019-07-30 05:00:00 20.9 3 Sudoeste 6 Sudoeste 0 1008.9 0.2 82
2019-07-30 04:00:00 21.5 5 Sudoeste 8 Sudoeste 0 1008.7 0.2 80
2019-07-30 03:00:00 22 0 Calma 7 Sur 0 1008.8 0.6 77
2019-07-30 02:00:00 23 4 Sur 14 Sur 0 1008.7 0.7 75
2019-07-30 01:00:00 24 11 Sur 17 Sur 0 1008.5 1 73
2019-07-30 00:00:00 24.6 8 Sudoeste 17 Sudoeste 0 1008.2 1.2 69
2019-07-29 23:00:00 25.2 8 Sur 18 Sudoeste 0 1008 1.3 65
2019-07-29 22:00:00 26.3 8 Sudoeste 18 Sur 0 1007.5 0.8 57
2019-07-29 21:00:00 27.8 10 Sudoeste 25 Sudoeste 0 1007 0.2 46
2019-07-29 20:00:00 30 12 Sur 25 Sudoeste 0 1006.7 -0.4 40
2019-07-29 19:00:00 31.1 12 Sur 29 Sur 0 1006.7 -0.5 36
2019-07-29 18:00:00 32.1 14 Sudoeste 27 Sudoeste 0 1006.8 -0.4 33
2019-07-29 17:00:00 32.9 13 Sur 26 Nordeste 0 1007.1 -0.3 31
2019-07-29 16:00:00 31.9 15 Nordeste 27 Nordeste 0 1007.2 -0.4 44
2019-07-29 15:00:00 32.9 9 Este 26 Sudoeste 0 1007.2 -0.7 36
2019-07-29 14:00:00 32.5 12 Sur 30 Sudoeste 0 1007.4 -0.5 32
2019-07-29 13:00:00 31.8 12 Sur 30 Sur 0 1007.6 -0.4 38
2019-07-29 12:00:00 30.5 12 Sudoeste 33 Sudoeste 0 1007.9 -0.1 44
2019-07-29 11:00:00 28.8 12 Sudoeste 25 Sudoeste 0 1007.9 0.2 52
2019-07-29 10:00:00 27.1 5 Sur 15 Sur 0 1008 0.8 51
2019-07-29 09:00:00 23.1 5 Sur 8 Sur 0 1008 0.8 62
2019-07-29 08:00:00 18.8 4 Sur 11 Sur 0 1007.7 0.6 78
2019-07-29 07:00:00 16.7 7 Sur 9 Sur 0 1007.2 -0.1 83
2019-07-29 06:00:00 17.4 8 Sudoeste 11 Sudoeste 0 1007.2 -0.3 83
2019-07-29 05:00:00 17.8 6 Sur 10 Sur 0 1007.1 -0.6 82
2019-07-29 04:00:00 18.5 4 Sudoeste 11 Sur 0 1007.3 -0.2 80
2019-07-29 03:00:00 19.1 5 Sudoeste 9 Sudoeste 0 1007.5 0 79
2019-07-29 02:00:00 20 5 Sudoeste 9 Sur 0 1007.7 0.3 80
2019-07-29 01:00:00 20.7 0 Calma 5 Noroeste 0 1007.5 0.5 77
2019-07-29 00:00:00 21.8 3 Sur 8 Sur 0 1007.5 1.1 73
2019-07-28 23:00:00 23.2 3 Oeste 10 Noroeste 0 1007.4 1.3 69
2019-07-28 22:00:00 24.2 5 Norte 20 Norte 0 1007 1.3 66
2019-07-28 21:00:00 24.9 15 Norte 25 Norte 0 1006.4 0.8 65
2019-07-28 20:00:00 26.2 14 Nordeste 30 Nordeste 0 1006.1 0.4 61
2019-07-28 19:00:00 27.2 17 Nordeste 31 Nordeste 0 1005.7 -0.4 58
2019-07-28 18:00:00 27.5 19 Nordeste 33 Norte 0 1005.6 -0.3 58
2019-07-28 17:00:00 28.4 19 Nordeste 33 Nordeste 0 1005.7 0.1 53
2019-07-28 16:00:00 28.4 16 Nordeste 33 Nordeste 0 1006.1 0.7 51
2019-07-28 15:00:00 29.7 18 Nordeste 34 Este 0 1005.9 0.3 47
2019-07-28 14:00:00 30.5 17 Nordeste 31 Este 0 1005.6 0.2 43
2019-07-28 13:00:00 29.5 13 Nordeste 32 Nordeste 0 1005.4 0.2 45
2019-07-28 12:00:00 30.1 10 Sudeste 23 Este 0 1005.6 0.8 39
2019-07-28 11:00:00 28.6 6 Este 18 Sudeste 0 1005.4 1 42
2019-07-28 10:00:00 26.6 5 Sudeste 13 Sudeste 0 1005.2 1.6 56
2019-07-28 09:00:00 25.4 4 Sudeste 12 Sudoeste 0 1004.8 1.9 65
2019-07-28 08:00:00 22.7 4 Oeste 8 Noroeste 0 1004.4 2.1 78
2019-07-28 07:00:00 21.4 4 Sudoeste 12 Sudeste 0 1003.6 1.3 81
2019-07-28 06:00:00 22 8 Sudeste 12 Sudeste 0 1002.9 0.7 77
2019-07-28 05:00:00 22.8 6 Norte 17 Nordeste 0 1002.3 0.4 75
2019-07-28 04:00:00 23.8 9 Nordeste 28 Noroeste 0 1002.3 0.6 69
2019-07-28 03:00:00 26.1 15 Noroeste 29 Noroeste 0 1002.2 0.6 48
2019-07-28 02:00:00 26.5 6 Noroeste 24 Noroeste 0 1001.9 0.4 51
2019-07-28 01:00:00 26.6 6 Oeste 15 Noroeste 0 1001.7 1.1 44
2019-07-28 00:00:00 26.6 3 Nordeste 13 Sur 0 1001.6 1.8 59
2019-07-27 23:00:00 27.3 3 Sudoeste 12 Sur 0 1001.5 2.5 54
2019-07-26 12:00:00 34.3 13 Sudeste 22 Este 0 1007.1 -1.3 31
2019-07-26 11:00:00 32.5 12 Sudeste 22 Sudeste 0 1007.6 -0.7 35
2019-07-26 10:00:00 31.1 6 Sudeste 13 Sudeste 0 1008.1 -0.2 37
2019-07-26 09:00:00 26.7 5 Sur 9 Sur 0 1008.4 0 59
2019-07-26 08:00:00 22.4 4 Sudeste 10 Sudoeste 0 1008.3 -0.3 64
2019-07-26 07:00:00 20.4 5 Sudoeste 10 Sudoeste 0 1008.3 -0.4 67
2019-07-26 06:00:00 20.6 6 Sudoeste 8 Sudoeste 0 1008.4 -0.8 70
2019-07-26 05:00:00 21 6 Sur 8 Sur 0 1008.6 -0.9 72
2019-07-26 04:00:00 22.2 4 Sudoeste 10 Sudoeste 0 1008.7 -1.3 68
2019-07-26 03:00:00 22.7 6 Sur 9 Sudoeste 0 1009.2 -1.1 67
2019-07-26 02:00:00 22.7 4 Sudoeste 7 Sudoeste 0 1009.5 -0.9 65
2019-07-26 01:00:00 23.8 2 Sur 6 Sudoeste 0 1010 0 62
2019-07-26 00:00:00 25.2 4 Sur 6 Sur 0 1010.3 0.8 58